Latest Weather Observations for Normanton

IDQ60801

Issued at 11:32 am EST Monday 8 February 2016 (issued every 30 minutes, with the page automatically refreshed every 10 minutes)

About weather observations | Map of weather stations | Latest weather observations for QLD | Other Formats
Station Details ID: 029063 Name: NORMANTON AIRPORT Lat: -17.69 Lon: 141.07 Height: 18.42 m
Data from the previous 72 hours. | See also: Recent months at Normanton
Date/Time
EST
Temp
°C
App
Temp
°C
Dew
Point
Rel
Hum
%
Delta-T
°C
Wind Press
QNH
hPa
Press
MSL
hPa
Rain
since 9 am
mm
Dir
 
Spd
km/h
Gust
km/h
Spd
kts
Gust
kts
08/11:30am 32.3 36.4 23.3 59 6.2 WNW 7 11 4 6 1009.3 - 0.0
08/11:00am 31.8 36.5 23.3 60 5.9 WSW 4 9 2 5 1009.4 - 0.0
08/10:30am 31.7 35.0 23.2 60 5.9 SSW 11 15 6 8 1009.5 - 0.0
08/10:00am 31.4 34.9 23.5 63 5.5 W 11 15 6 8 1009.5 - 0.0
08/09:30am 31.2 33.9 24.1 66 4.9 WSW 17 22 9 12 1009.2 - 0.0
08/09:00am 30.1 32.4 23.5 67 4.6 SW 17 22 9 12 1009.2 1009.0 0.0
08/08:30am 29.5 33.2 24.6 75 3.4 WSW 13 19 7 10 1008.8 - 0.0
08/08:00am 28.5 31.8 25.1 82 2.4 SW 17 20 9 11 1008.5 - 0.0
08/07:30am 27.7 32.3 25.9 90 1.3 SW 13 19 7 10 1008.3 - 0.0
08/07:00am 27.3 33.8 25.7 91 1.1 SW 2 7 1 4 1007.6 - 0.0
08/06:30am 27.5 33.6 25.7 90 1.3 WNW 4 6 2 3 1007.1 - 0.0
08/06:00am 27.2 32.7 25.6 91 1.1 W 7 11 4 6 1006.7 1006.5 0.0
08/05:30am 27.2 32.7 25.6 91 1.1 W 7 11 4 6 1006.4 - 0.0
08/05:00am 27.3 32.7 25.5 90 1.3 WNW 7 9 4 5 1006.2 - 0.0
08/04:30am 27.3 32.6 25.3 89 1.4 WNW 7 11 4 6 1006.2 - 0.0
08/04:00am 27.3 32.2 25.3 89 1.4 WNW 9 11 5 6 1006.0 - 0.0
08/03:30am 27.5 32.4 25.3 88 1.5 W 9 11 5 6 1006.0 - 0.0
08/03:00am 27.6 32.9 25.2 87 1.7 WNW 7 11 4 6 1006.2 1006.1 0.0
08/02:30am 27.7 32.6 25.3 87 1.7 WNW 9 11 5 6 1006.5 - 0.0
08/02:00am 27.8 32.7 25.2 86 1.8 WNW 9 11 5 6 1006.8 - 0.0
08/01:30am 27.9 32.8 25.3 86 1.8 W 9 11 5 6 1007.1 - 0.0
08/01:00am 28.4 33.3 25.2 83 2.2 WNW 9 11 5 6 1007.4 - 0.0
08/12:30am 28.9 33.3 25.1 80 2.7 NNW 11 15 6 8 1007.7 - 0.0
08/12:00am 28.9 33.7 25.1 80 2.7 NW 9 13 5 7 1007.8 1007.7 0.0
 
Date/Time
EST
Temp
°C
App
Temp
°C
Dew
Point
Rel
Hum
%
Delta-T
°C
Wind Press
QNH
hPa
Press
MSL
hPa
Rain
since 9 am
mm
Dir
 
Spd
km/h
Gust
km/h
Spd
kts
Gust
kts
07/11:30pm 29.1 33.7 25.3 80 2.7 NNW 11 13 6 7 1008.0 - 0.0
07/11:00pm 29.2 32.8 25.0 78 2.9 NNW 15 17 8 9 1007.9 - 0.0
07/10:30pm 29.2 33.2 25.0 78 2.9 NNW 13 15 7 8 1007.9 - 0.0
07/10:00pm 29.5 33.2 24.6 75 3.4 N 13 15 7 8 1007.9 - 0.0
07/09:30pm 29.7 34.1 25.0 76 3.3 NNW 11 15 6 8 1007.7 - 0.0
07/09:00pm 30.0 34.1 24.6 73 3.8 NNW 11 13 6 7 1007.4 1007.1 0.0
07/08:30pm 30.2 33.6 24.1 70 4.2 N 13 17 7 9 1007.0 - 0.0
07/08:00pm 31.0 33.7 23.4 64 5.2 NNW 15 20 8 11 1006.8 - 0.0
07/07:30pm 31.7 33.1 21.8 55 6.7 NNW 17 20 9 11 1006.5 - 0.0
07/07:00pm 32.6 33.9 20.8 49 7.9 NNW 15 19 8 10 1006.0 - 0.0
07/06:30pm 33.7 33.9 19.4 43 9.4 NNW 17 20 9 11 1005.5 - 0.0
07/06:00pm 34.4 35.4 21.1 45 9.0 NNW 17 20 9 11 1005.2 1004.9 0.0
07/05:30pm 34.8 35.5 20.4 43 9.7 NNW 17 26 9 14 1004.7 - 0.0
07/05:00pm 34.8 35.1 20.7 43 9.5 NNW 20 26 11 14 1004.6 - 0.0
07/04:30pm 35.2 35.9 21.5 45 9.3 NNW 20 28 11 15 1004.5 - 0.0
07/04:00pm 35.3 35.8 21.2 44 9.6 NW 20 28 11 15 1004.6 - 0.0
07/03:30pm 35.0 36.1 21.3 45 9.3 N 17 24 9 13 1004.7 - 0.0
07/03:00pm 35.6 38.4 21.5 44 9.6 N 9 19 5 10 1005.0 1004.8 0.0
07/02:30pm 35.0 37.4 20.9 43 9.5 W 9 19 5 10 1005.2 - 0.0
07/01:30pm 35.1 36.5 21.0 43 9.5 W 15 22 8 12 1005.8 - 0.0
07/01:00pm 35.1 37.6 21.7 45 9.1 NNW 11 20 6 11 1006.3 - 0.0
07/12:30pm 34.4 37.3 21.8 48 8.6 NW 9 15 5 8 1006.7 - 0.0
07/12:00pm 34.1 35.0 20.8 45 9.0 W 17 22 9 12 1007.1 1006.9 0.0
07/11:30am 33.6 34.5 20.0 44 9.0 WNW 15 20 8 11 1007.4 - 0.0
07/11:00am 33.2 35.1 22.0 51 7.6 W 15 24 8 13 1007.5 - 0.0
07/10:30am 33.1 35.2 22.5 53 7.3 WNW 15 20 8 11 1007.5 - 0.0
07/10:00am 31.8 34.7 23.1 60 6.0 W 13 19 7 10 1007.5 - 0.0
07/09:30am 31.2 34.7 24.8 69 4.5 W 15 20 8 11 1007.3 - 0.0
07/09:00am 30.6 34.8 24.7 71 4.1 WNW 11 15 6 8 1007.1 1006.9 0.0
07/08:30am 29.7 33.6 24.3 73 3.8 WNW 11 13 6 7 1006.9 - 0.0
07/08:00am 28.2 33.0 24.4 80 2.6 NW 7 9 4 5 1006.8 - 0.0
07/07:30am 26.9 31.3 23.8 83 2.1 WNW 7 9 4 5 1006.5 - 0.0
07/07:00am 26.2 32.0 23.9 87 1.6 CALM 0 0 0 0 1006.0 - 0.0
07/06:30am 25.8 30.6 23.5 87 1.6 W 4 6 2 3 1005.6 - 0.0
07/06:00am 25.9 30.4 23.6 87 1.6 WNW 6 7 3 4 1005.1 1004.8 0.0
07/05:30am 26.1 30.6 23.6 86 1.7 WNW 6 7 3 4 1004.8 - 0.0
07/05:00am 26.1 30.3 23.4 85 1.8 W 7 9 4 5 1004.5 - 0.0
07/04:30am 26.2 30.4 23.5 85 1.8 W 7 9 4 5 1004.5 - 0.0
07/04:00am 26.5 30.9 23.8 85 1.9 WNW 7 9 4 5 1004.3 - 0.0
07/03:30am 26.9 31.4 24.0 84 2.0 WNW 7 9 4 5 1004.2 - 0.0
07/03:00am 26.9 32.4 24.0 84 2.0 NW 2 7 1 4 1004.2 1004.0 0.0
07/02:30am 27.1 31.9 24.2 84 2.0 NW 6 7 3 4 1004.2 - 0.0
07/02:00am 27.1 31.7 24.2 84 2.0 WNW 7 9 4 5 1004.4 - 0.0
07/01:30am 27.1 31.9 24.4 85 1.9 W 7 9 4 5 1004.8 - 0.0
07/01:00am 27.3 32.2 24.7 86 1.8 WNW 7 9 4 5 1005.2 - 0.0
07/12:30am 27.6 32.6 24.8 85 2.0 WNW 7 9 4 5 1005.5 - 0.0
07/12:00am 27.9 32.7 24.5 82 2.4 NW 7 9 4 5 1005.9 1005.7 0.0
 
Date/Time
EST
Temp
°C
App
Temp
°C
Dew
Point
Rel
Hum
%
Delta-T
°C
Wind Press
QNH
hPa
Press
MSL
hPa
Rain
since 9 am
mm
Dir
 
Spd
km/h
Gust
km/h
Spd
kts
Gust
kts
06/11:30pm 28.0 32.3 24.2 80 2.6 NW 9 11 5 6 1006.1 - 0.0
06/11:00pm 28.6 33.2 24.2 77 3.1 NW 7 11 4 6 1006.1 - 0.0
06/10:30pm 28.6 33.1 23.9 75 3.2 WNW 7 9 4 5 1005.8 - 0.0
06/10:00pm 29.0 33.3 23.7 73 3.7 NW 7 9 4 5 1005.3 - 0.0
06/09:30pm 29.4 33.0 23.1 69 4.3 NW 9 11 5 6 1005.1 - 0.0
06/09:00pm 29.6 32.9 22.6 66 4.8 NW 9 11 5 6 1004.7 1004.5 0.0
06/08:30pm 30.2 33.4 22.4 63 5.3 NW 9 11 5 6 1004.4 - 0.0
06/08:00pm 30.8 33.2 21.6 58 6.2 NW 11 13 6 7 1004.0 - 0.0
06/07:30pm 31.5 33.5 20.8 53 7.1 NW 11 13 6 7 1003.6 - 0.0
06/07:00pm 32.7 33.3 20.2 47 8.3 NW 17 20 9 11 1003.3 - 0.0
06/06:30pm 33.9 33.4 19.2 42 9.7 NW 20 24 11 13 1002.9 - 0.0
06/06:00pm 35.9 35.6 14.5 27 13.3 WNW 9 17 5 9 1002.7 1002.5 0.0
06/05:30pm 36.1 35.5 14.7 28 13.3 W 11 15 6 8 1002.3 - 0.0
06/05:00pm 36.0 35.8 13.5 26 13.8 SW 7 11 4 6 1002.2 - 0.0
06/04:30pm 36.3 35.8 14.9 28 13.4 W 11 20 6 11 1002.1 - 0.0
06/04:00pm 36.4 35.3 14.4 27 13.7 W 13 20 7 11 1002.3 - 0.0
06/03:30pm 36.3 36.6 14.9 28 13.4 S 7 15 4 8 1002.6 - 0.0
06/03:00pm 36.0 35.0 14.6 27 13.3 WSW 13 17 7 9 1002.9 1002.9 0.0
06/02:30pm 35.6 34.1 13.1 25 13.7 WSW 13 20 7 11 1003.2 - 0.0
06/02:00pm 35.6 33.9 12.5 24 13.9 WSW 13 24 7 13 1003.3 - 0.0
06/01:30pm 35.0 32.4 13.2 27 13.2 W 19 28 10 15 1003.8 - 0.0
06/01:00pm 34.9 34.4 13.7 28 13.0 SSW 9 15 5 8 1004.2 - 0.0
06/12:30pm 34.3 33.6 14.2 29 12.3 SSW 11 17 6 9 1004.6 - 0.0
06/12:00pm 33.5 32.0 13.0 29 12.4 SW 13 19 7 10 1004.8 1004.6 0.0
06/11:30am 33.3 31.9 14.4 32 11.6 S 15 20 8 11 1004.9 - 0.0
06/11:00am 33.0 31.5 14.1 32 11.5 S 15 20 8 11 1005.0 - 0.0
06/10:30am 32.3 30.2 13.5 32 11.3 S 17 24 9 13 1005.1 - 0.0
06/10:00am 31.7 29.3 13.9 34 10.8 S 19 24 10 13 1005.2 - 0.0
06/09:30am 30.7 28.4 13.0 33 10.5 S 17 22 9 12 1005.1 - 0.0
06/09:00am 29.8 29.0 14.0 38 9.5 SSW 11 19 6 10 1005.1 1004.9 0.0
06/08:30am 28.9 29.1 15.8 45 8.1 SW 9 13 5 7 1005.1 - 0.0
06/08:00am 27.7 27.1 15.7 48 7.4 SSW 13 15 7 8 1004.9 - 0.0
06/07:30am 26.5 26.7 17.6 58 5.6 SSW 13 17 7 9 1004.7 - 0.0
06/07:00am 25.1 26.4 19.2 70 3.8 SSW 11 13 6 7 1004.4 - 0.0
06/06:30am 25.0 27.3 21.3 80 2.4 SW 11 15 6 8 1003.8 - 0.0
06/06:00am 25.5 29.0 22.8 85 1.8 WSW 9 15 5 8 1003.3 1003.1 0.0
06/05:30am 25.6 29.5 23.6 89 1.4 W 9 11 5 6 1002.9 - 0.0
06/05:00am 25.8 30.0 23.5 87 1.6 WSW 7 7 4 4 1002.5 - 0.0
06/04:30am 26.4 29.7 23.9 86 1.7 SW 13 17 7 9 1002.4 - 0.0
06/04:00am 26.2 29.8 23.1 83 2.1 WSW 9 11 5 6 1001.8 - 0.0
06/03:30am 26.6 29.8 22.4 78 2.8 W 9 11 5 6 1001.9 - 0.0
06/03:00am 26.6 30.5 22.9 80 2.5 W 7 9 4 5 1002.1 1002.0 0.0
06/02:30am 26.8 31.0 23.1 80 2.5 WSW 6 7 3 4 1002.2 - 0.0
06/02:00am 27.0 31.1 23.3 80 2.5 WSW 7 9 4 5 1002.3 - 0.0
06/01:30am 27.2 31.5 23.7 81 2.4 WSW 7 9 4 5 1002.6 - 0.0
06/01:00am 27.5 32.1 24.1 82 2.3 WSW 7 9 4 5 1003.0 - 0.0
06/12:30am 27.7 32.2 23.9 80 2.6 WSW 7 9 4 5 1003.6 - 0.0
06/12:00am 28.0 32.3 23.6 77 3.0 SW 7 9 4 5 1004.0 1003.8 0.0
 
Date/Time
EST
Temp
°C
App
Temp
°C
Dew
Point
Rel
Hum
%
Delta-T
°C
Wind Press
QNH
hPa
Press
MSL
hPa
Rain
since 9 am
mm
Dir
 
Spd
km/h
Gust
km/h
Spd
kts
Gust
kts
05/11:30pm 28.0 32.5 23.6 77 3.0 WSW 6 7 3 4 1004.1 - 0.0
05/11:00pm 27.9 33.2 23.1 75 3.3 CALM 0 0 0 0 1004.2 - 0.0
05/10:30pm 28.0 33.3 23.1 74 3.3 CALM 0 0 0 0 1004.3 - 0.0
05/10:00pm 28.4 34.0 23.5 75 3.4 CALM 0 0 0 0 1004.3 - 0.0
05/09:30pm 28.7 33.8 22.7 70 4.1 CALM 0 0 0 0 1004.2 - 0.0
05/09:00pm 29.2 33.9 21.9 64 4.9 CALM 0 0 0 0 1004.0 1003.7 0.0
05/08:30pm 29.5 33.1 22.0 64 5.1 SSW 6 7 3 4 1003.5 - 0.0
05/08:00pm 30.4 34.2 22.8 64 5.2 SSW 7 9 4 5 1002.9 - 0.0
05/07:30pm 31.1 34.4 21.9 58 6.2 SSW 7 9 4 5 1002.7 - 0.0
05/07:00pm 32.3 34.2 20.5 49 7.9 S 11 15 6 8 1002.4 - 0.0
05/06:30pm 33.1 33.9 19.9 45 8.7 S 15 20 8 11 1002.1 - 0.0
05/06:00pm 33.4 33.7 20.5 46 8.7 SSW 19 26 10 14 1001.8 1001.5 0.0
05/05:30pm 34.0 35.2 21.4 47 8.5 SSW 17 30 9 16 1001.3 - 0.0
05/05:00pm 34.2 34.2 20.2 43 9.3 SSW 20 28 11 15 1001.1 - 0.0
05/04:30pm 34.1 34.6 20.1 43 9.3 SSW 17 26 9 14 1001.2 - 0.0
05/04:00pm 33.9 33.8 18.8 41 9.9 S 17 22 9 12 1001.7 - 0.0
05/03:30pm 34.4 33.8 18.4 38 10.4 SW 19 22 10 12 1002.0 - 0.0
05/03:00pm 34.4 35.0 21.1 45 9.0 SSW 19 22 10 12 1002.2 1002.1 0.0
05/02:30pm 34.0 35.7 22.4 50 8.0 S 17 22 9 12 1002.4 - 0.0
05/02:00pm 33.1 34.9 21.9 51 7.6 S 15 22 8 12 1002.7 - 0.0
05/01:30pm 33.0 33.9 21.5 50 7.8 S 19 28 10 15 1003.2 - 0.0
05/01:00pm 33.6 34.2 21.1 48 8.4 SSW 19 30 10 16 1003.4 - 0.0
05/12:30pm 32.7 33.6 21.9 53 7.3 SSW 20 26 11 14 1003.7 - 0.0
05/12:00pm 32.8 33.0 21.3 50 7.8 S 22 28 12 15 1004.0 1003.8 0.0

Other Formats:

Comma delimited format used in spreadsheet applications
http://www.bom.gov.au/fwo/IDQ60801/IDQ60801.94266.axf

JavaScript Object Notation format (JSON) in row-major order
http://www.bom.gov.au/fwo/IDQ60801/IDQ60801.94266.json